createdAt,value
2023-02-27T00:00:36.441Z,20.83
2023-02-27T00:03:24.349Z,19.45
2023-02-27T00:05:52.370Z,22.77
2023-02-27T00:08:20.012Z,19.38
2023-02-27T00:10:48.079Z,23.80
2023-02-27T00:13:15.740Z,20.55
2023-02-27T00:15:47.101Z,26.13
2023-02-27T00:18:14.963Z,22.20
2023-02-27T00:20:43.176Z,22.30
2023-02-27T00:23:11.020Z,21.58
2023-02-27T00:25:39.026Z,20.10
2023-02-27T00:28:06.627Z,19.25
2023-02-27T00:30:34.709Z,23.60
2023-02-27T00:33:02.381Z,20.98
2023-02-27T00:35:30.418Z,20.83
2023-02-27T00:37:58.075Z,16.88
2023-02-27T00:40:26.409Z,14.55
2023-02-27T00:42:54.625Z,17.55
2023-02-27T00:45:23.043Z,18.60
2023-02-27T00:47:50.746Z,17.42
2023-02-27T00:50:18.766Z,18.85
2023-02-27T00:52:46.543Z,19.00
2023-02-27T00:55:14.629Z,16.48
2023-02-27T00:57:42.614Z,14.07
2023-02-27T01:00:11.599Z,16.45
2023-02-27T01:02:39.532Z,13.25
2023-02-27T01:05:09.210Z,15.23
2023-02-27T01:07:37.693Z,14.82
2023-02-27T01:10:07.299Z,13.23
2023-02-27T01:12:36.036Z,14.40
2023-02-27T01:15:06.040Z,10.68
2023-02-27T01:17:33.974Z,12.80
2023-02-27T01:20:02.007Z,12.50
2023-02-27T01:22:29.649Z,15.95
2023-02-27T01:24:57.613Z,12.20
2023-02-27T01:27:25.324Z,12.05
2023-02-27T01:29:53.305Z,13.27
2023-02-27T01:32:21.153Z,10.80
2023-02-27T01:34:49.369Z,11.05
2023-02-27T01:37:17.557Z,14.50
2023-02-27T01:39:45.588Z,16.02
2023-02-27T01:42:23.157Z,12.05
2023-02-27T01:45:29.063Z,14.43
2023-02-27T01:48:20.181Z,15.27
2023-02-27T01:50:57.590Z,12.40
2023-02-27T01:53:30.065Z,12.80
2023-02-27T01:56:07.943Z,12.10
2023-02-27T01:58:36.943Z,13.98
2023-02-27T02:01:05.291Z,11.50
2023-02-27T02:03:38.575Z,14.27
2023-02-27T02:06:07.944Z,12.70
2023-02-27T02:08:41.894Z,15.95
2023-02-27T02:11:10.332Z,13.85
2023-02-27T02:13:40.364Z,14.18
2023-02-27T02:16:49.090Z,14.35
2023-02-27T02:19:48.057Z,12.98
2023-02-27T02:22:59.848Z,14.80
2023-02-27T02:25:55.112Z,14.07
2023-02-27T02:28:47.784Z,11.65
2023-02-27T02:31:45.016Z,13.45
2023-02-27T02:34:15.792Z,13.90
2023-02-27T02:37:14.366Z,14.35
2023-02-27T02:40:05.383Z,16.05
2023-02-27T02:42:45.552Z,14.10
2023-02-27T02:45:26.822Z,15.68
2023-02-27T02:48:15.770Z,13.30
2023-02-27T02:50:57.080Z,17.50
2023-02-27T02:53:36.600Z,14.00
2023-02-27T02:56:25.634Z,13.93
2023-02-27T02:59:34.198Z,16.77
2023-02-27T03:02:17.065Z,15.57
2023-02-27T03:04:49.266Z,12.23
2023-02-27T03:07:26.849Z,15.15
2023-02-27T03:10:09.952Z,16.05
2023-02-27T03:12:41.638Z,15.75
2023-02-27T03:18:24.813Z,13.70
2023-02-27T03:20:57.587Z,13.18
2023-02-27T03:23:42.261Z,13.85
2023-02-27T03:26:20.962Z,15.27
2023-02-27T03:29:01.689Z,13.07
2023-02-27T03:31:41.216Z,17.42
2023-02-27T03:34:18.247Z,13.02
2023-02-27T03:36:50.733Z,15.95
2023-02-27T03:39:27.452Z,12.55
2023-02-27T03:42:09.095Z,13.60
2023-02-27T03:45:20.041Z,12.18
2023-02-27T03:47:48.346Z,14.30
2023-02-27T03:50:16.780Z,19.13
2023-02-27T03:52:45.741Z,14.38
2023-02-27T03:55:28.023Z,14.82
2023-02-27T03:57:56.551Z,12.48
2023-02-27T04:00:26.508Z,13.23
2023-02-27T04:02:59.672Z,13.32
2023-02-27T04:05:29.646Z,12.32
2023-02-27T04:08:08.062Z,13.90
2023-02-27T04:10:55.684Z,14.80
2023-02-27T04:13:52.456Z,14.23
2023-02-27T04:16:23.309Z,12.48
2023-02-27T04:19:23.575Z,13.25
2023-02-27T04:22:25.861Z,15.30
2023-02-27T04:25:01.918Z,12.88
2023-02-27T04:27:41.550Z,13.35
2023-02-27T04:30:18.293Z,15.02
2023-02-27T04:33:09.835Z,15.25
2023-02-27T04:36:06.274Z,14.13
2023-02-27T04:38:51.627Z,16.08
2023-02-27T04:41:48.783Z,16.88
2023-02-27T04:44:18.821Z,17.42
2023-02-27T04:46:47.923Z,18.98
2023-02-27T04:49:28.037Z,22.50
2023-02-27T04:52:01.769Z,24.67
2023-02-27T04:54:46.816Z,35.17
2023-02-27T04:57:24.827Z,28.73
2023-02-27T04:59:55.863Z,17.75
2023-02-27T05:02:32.838Z,17.52
2023-02-27T05:05:06.371Z,12.52
2023-02-27T05:10:40.096Z,15.70
2023-02-27T05:13:23.358Z,15.32
2023-02-27T05:16:10.928Z,14.27
2023-02-27T05:18:39.188Z,16.38
2023-02-27T05:21:29.819Z,13.73
2023-02-27T05:24:14.184Z,16.77
2023-02-27T05:27:13.634Z,15.55
2023-02-27T05:29:41.571Z,19.65
2023-02-27T05:32:32.127Z,18.40
2023-02-27T05:35:34.124Z,16.15
2023-02-27T05:38:15.853Z,20.00
2023-02-27T05:41:01.873Z,13.85
2023-02-27T05:43:34.880Z,11.32
2023-02-27T05:46:11.552Z,11.35
2023-02-27T05:48:52.093Z,10.32
2023-02-27T05:51:22.401Z,9.40
2023-02-27T05:53:58.461Z,11.18
2023-02-27T05:56:29.928Z,12.35
2023-02-27T05:59:10.643Z,12.48
2023-02-27T06:01:38.652Z,10.05
2023-02-27T06:04:06.313Z,12.30
2023-02-27T06:06:36.617Z,14.55
2023-02-27T06:09:04.628Z,11.43
2023-02-27T06:11:32.513Z,14.68
2023-02-27T06:14:00.241Z,15.35
2023-02-27T06:16:28.323Z,18.30
2023-02-27T06:18:56.204Z,14.88
2023-02-27T06:21:24.162Z,13.77
2023-02-27T06:23:51.784Z,12.43
2023-02-27T06:26:19.811Z,10.70
2023-02-27T06:28:47.517Z,6.43
2023-02-27T06:31:15.453Z,8.10
2023-02-27T06:33:43.189Z,4.97
2023-02-27T06:36:11.230Z,5.32
2023-02-27T06:38:38.943Z,6.88
2023-02-27T06:41:07.514Z,7.57
2023-02-27T06:43:37.287Z,7.90
2023-02-27T06:46:05.613Z,4.38
2023-02-27T06:48:33.601Z,7.22
2023-02-27T06:51:01.624Z,3.50
2023-02-27T06:53:29.689Z,2.60
2023-02-27T06:55:57.741Z,6.47
2023-02-27T06:58:25.496Z,3.33
2023-02-27T07:00:53.478Z,3.97
2023-02-27T07:03:21.132Z,3.50
2023-02-27T07:05:49.090Z,4.95
2023-02-27T07:08:17.683Z,3.47
2023-02-27T07:10:47.234Z,4.60
2023-02-27T07:13:19.121Z,3.95
2023-02-27T07:15:47.589Z,3.38
2023-02-27T07:18:15.428Z,4.85
2023-02-27T07:20:43.291Z,2.22
2023-02-27T07:23:10.980Z,2.90
2023-02-27T07:25:39.010Z,3.67
2023-02-27T07:28:06.911Z,4.30
2023-02-27T07:30:34.832Z,5.80
2023-02-27T07:33:02.572Z,7.05
2023-02-27T07:35:30.522Z,13.48
2023-02-27T07:37:58.212Z,7.28
2023-02-27T07:40:26.189Z,3.67
2023-02-27T07:42:53.837Z,3.67
2023-02-27T07:45:23.566Z,2.90
2023-02-27T07:47:51.304Z,4.38
2023-02-27T07:50:19.398Z,4.53
2023-02-27T07:52:47.545Z,6.65
2023-02-27T07:55:15.524Z,4.95
2023-02-27T07:57:44.816Z,5.95
2023-02-27T08:00:13.395Z,6.43
2023-02-27T08:02:41.100Z,3.50
2023-02-27T08:05:09.958Z,3.15
2023-02-27T08:07:37.710Z,4.55
2023-02-27T08:10:07.003Z,6.43
2023-02-27T08:12:35.120Z,4.30
2023-02-27T08:15:03.329Z,6.40
2023-02-27T08:17:30.972Z,5.88
2023-02-27T08:19:58.974Z,5.15
2023-02-27T08:22:29.195Z,3.15
2023-02-27T08:24:57.223Z,6.60
2023-02-27T08:27:25.216Z,4.53
2023-02-27T08:29:53.273Z,3.33
2023-02-27T08:32:21.310Z,2.55
2023-02-27T08:34:49.686Z,18.35
2023-02-27T08:37:17.486Z,16.00
2023-02-27T08:39:45.526Z,5.03
2023-02-27T08:42:13.325Z,4.85
2023-02-27T08:44:41.610Z,3.75
2023-02-27T08:47:09.660Z,4.57
2023-02-27T08:49:37.752Z,7.25
2023-02-27T08:52:05.661Z,3.60
2023-02-27T08:54:33.586Z,4.18
2023-02-27T08:57:01.192Z,5.10
2023-02-27T08:59:29.203Z,6.57
2023-02-27T09:01:57.437Z,11.27
2023-02-27T09:04:26.339Z,7.93
2023-02-27T09:06:54.117Z,4.28
2023-02-27T09:09:23.806Z,3.38
2023-02-27T09:11:52.083Z,5.07
2023-02-27T09:14:20.572Z,4.07
2023-02-27T09:16:48.715Z,5.18
2023-02-27T09:19:16.841Z,6.88
2023-02-27T09:21:44.523Z,4.80
2023-02-27T09:24:19.737Z,4.55
2023-02-27T09:26:50.125Z,6.45
2023-02-27T09:29:18.817Z,4.07
2023-02-27T09:31:47.361Z,5.35
2023-02-27T09:34:15.365Z,4.65
2023-02-27T09:36:43.224Z,3.58
2023-02-27T09:39:11.356Z,4.22
2023-02-27T09:41:48.293Z,4.43
2023-02-27T09:44:47.880Z,2.90
2023-02-27T09:47:48.021Z,4.00
2023-02-27T09:50:44.803Z,4.55
2023-02-27T09:53:40.138Z,3.80
2023-02-27T09:56:24.728Z,5.53
2023-02-27T09:58:55.744Z,8.80
2023-02-27T10:01:56.220Z,2.42
2023-02-27T10:04:45.575Z,4.57
2023-02-27T10:07:13.496Z,6.45
2023-02-27T10:09:48.355Z,4.18
2023-02-27T10:12:34.894Z,4.88
2023-02-27T10:15:20.405Z,6.28
2023-02-27T10:18:10.446Z,4.82
2023-02-27T10:20:55.829Z,5.68
2023-02-27T10:23:32.645Z,3.92
2023-02-27T10:26:01.866Z,3.63
2023-02-27T10:28:31.644Z,4.55
2023-02-27T10:31:02.415Z,6.32
2023-02-27T10:33:34.721Z,3.42
2023-02-27T10:36:03.680Z,4.05
2023-02-27T10:38:45.596Z,6.35
2023-02-27T10:41:15.839Z,6.55
2023-02-27T10:43:44.651Z,3.35
2023-02-27T10:46:19.571Z,4.75
2023-02-27T10:48:47.922Z,6.55
2023-02-27T10:51:30.387Z,6.82
2023-02-27T10:54:19.702Z,10.23
2023-02-27T10:56:56.911Z,4.07
2023-02-27T10:59:36.046Z,7.88
2023-02-27T11:02:21.721Z,7.68
2023-02-27T11:04:54.878Z,9.85
2023-02-27T11:07:38.690Z,11.70
2023-02-27T11:13:05.162Z,34.22
2023-02-27T11:15:35.689Z,21.30
2023-02-27T11:18:27.608Z,27.23
2023-02-27T11:21:22.747Z,11.30
2023-02-27T11:23:55.515Z,6.32
2023-02-27T11:26:28.255Z,4.28
2023-02-27T11:29:18.938Z,13.90
2023-02-27T11:32:00.368Z,21.55
2023-02-27T11:34:36.293Z,13.93
2023-02-27T11:37:27.485Z,17.58
2023-02-27T11:40:16.025Z,7.53
2023-02-27T11:43:06.022Z,7.70
2023-02-27T11:49:03.179Z,16.20
2023-02-27T11:52:09.646Z,6.97
2023-02-27T11:54:45.513Z,9.18
2023-02-27T11:57:39.449Z,6.30
2023-02-27T12:00:16.054Z,5.95
2023-02-27T12:03:20.656Z,5.50
2023-02-27T12:05:53.704Z,7.20
2023-02-27T12:08:53.903Z,6.13
2023-02-27T12:11:33.135Z,3.35
2023-02-27T12:14:24.000Z,6.93
2023-02-27T12:16:59.280Z,8.23
2023-02-27T12:19:38.607Z,6.25
2023-02-27T12:22:29.094Z,7.38
2023-02-27T12:25:38.562Z,7.45
2023-02-27T12:28:23.519Z,9.45
2023-02-27T12:31:15.552Z,8.35
2023-02-27T12:33:59.045Z,7.32
2023-02-27T12:36:26.891Z,5.73
2023-02-27T12:38:55.046Z,13.02
2023-02-27T12:41:41.739Z,7.65
2023-02-27T12:44:25.586Z,6.63
2023-02-27T12:47:03.237Z,9.45
2023-02-27T12:49:55.578Z,9.93
2023-02-27T12:52:35.685Z,6.07
2023-02-27T12:55:12.831Z,8.95
2023-02-27T12:57:43.592Z,5.65
2023-02-27T13:00:20.545Z,8.18
2023-02-27T13:03:16.012Z,7.65
2023-02-27T13:05:52.628Z,5.88
2023-02-27T13:08:39.042Z,7.72
2023-02-27T13:11:22.231Z,8.48
2023-02-27T13:13:58.986Z,9.95
2023-02-27T13:16:43.904Z,7.32
2023-02-27T13:19:26.478Z,9.50
2023-02-27T13:21:55.823Z,10.25
2023-02-27T13:24:29.040Z,11.75
2023-02-27T13:27:23.659Z,6.72
2023-02-27T13:30:06.568Z,6.03
2023-02-27T13:32:52.712Z,7.67
2023-02-27T13:35:23.824Z,5.93
2023-02-27T13:37:58.746Z,6.97
2023-02-27T13:40:32.485Z,8.05
2023-02-27T13:43:06.465Z,7.50
2023-02-27T13:45:47.869Z,9.55
2023-02-27T13:48:34.198Z,8.45
2023-02-27T13:51:03.011Z,7.35
2023-02-27T13:53:31.040Z,5.35
2023-02-27T13:56:22.640Z,6.55
2023-02-27T13:58:51.242Z,7.78
2023-02-27T14:01:27.293Z,6.05
2023-02-27T14:04:02.938Z,8.57
2023-02-27T14:06:31.016Z,8.35
2023-02-27T14:09:12.725Z,8.88
2023-02-27T14:12:00.120Z,7.35
2023-02-27T14:14:50.335Z,5.32
2023-02-27T14:17:36.517Z,7.20
2023-02-27T14:20:10.603Z,12.65
2023-02-27T14:25:26.468Z,8.05
2023-02-27T14:27:59.586Z,5.70
2023-02-27T14:30:37.655Z,7.45
2023-02-27T14:33:17.824Z,7.43
2023-02-27T14:35:56.211Z,8.73
2023-02-27T14:38:25.907Z,6.22
2023-02-27T14:41:29.543Z,7.53
2023-02-27T14:43:58.850Z,9.48
2023-02-27T14:46:39.271Z,12.57
2023-02-27T14:49:31.867Z,8.02
2023-02-27T14:52:18.146Z,7.95
2023-02-27T14:54:45.828Z,11.25
2023-02-27T14:57:28.901Z,8.68
2023-02-27T14:59:56.690Z,8.70
2023-02-27T15:02:32.636Z,8.55
2023-02-27T15:05:03.077Z,8.23
2023-02-27T15:07:33.306Z,8.13
2023-02-27T15:10:04.856Z,5.97
2023-02-27T15:12:38.279Z,8.07
2023-02-27T15:15:09.122Z,9.63
2023-02-27T15:17:42.431Z,9.32
2023-02-27T15:20:31.891Z,6.88
2023-02-27T15:23:02.025Z,8.68
2023-02-27T15:25:37.397Z,6.78
2023-02-27T15:28:17.672Z,7.63
2023-02-27T15:30:49.825Z,6.95
2023-02-27T15:33:18.755Z,10.88
2023-02-27T15:35:47.202Z,12.52
2023-02-27T15:38:30.181Z,10.73
2023-02-27T15:40:59.811Z,10.77
2023-02-27T15:43:29.334Z,9.40
2023-02-27T15:45:58.469Z,13.65
2023-02-27T15:48:26.917Z,8.82
2023-02-27T15:50:58.672Z,11.60
2023-02-27T15:53:29.003Z,12.13
2023-02-27T15:56:04.680Z,15.25
2023-02-27T15:58:38.910Z,15.98
2023-02-27T16:01:18.152Z,15.55
2023-02-27T16:03:49.130Z,7.10
2023-02-27T16:06:25.060Z,12.70
2023-02-27T16:09:05.268Z,11.70
2023-02-27T16:11:36.080Z,13.80
2023-02-27T16:14:06.052Z,9.85
2023-02-27T16:16:38.950Z,17.27
2023-02-27T16:19:28.670Z,6.10
2023-02-27T16:22:07.151Z,8.68
2023-02-27T16:24:34.998Z,11.00
2023-02-27T16:27:03.189Z,7.65
2023-02-27T16:29:52.377Z,9.40
2023-02-27T16:32:30.435Z,26.23
2023-02-27T16:35:07.979Z,29.95
2023-02-27T16:37:46.012Z,26.65
2023-02-27T16:40:16.411Z,27.52
2023-02-27T16:42:45.376Z,13.52
2023-02-27T16:45:23.209Z,7.25
2023-02-27T16:47:53.758Z,9.57
2023-02-27T16:50:33.402Z,10.38
2023-02-27T16:53:01.502Z,15.05
2023-02-27T16:55:29.446Z,12.68
2023-02-27T16:57:57.568Z,10.43
2023-02-27T17:00:25.421Z,17.17
2023-02-27T17:02:53.409Z,12.88
2023-02-27T17:05:21.337Z,27.20
2023-02-27T17:07:49.305Z,15.38
2023-02-27T17:10:22.078Z,11.38
2023-02-27T17:12:50.189Z,8.70
2023-02-27T17:15:18.198Z,12.60
2023-02-27T17:17:46.244Z,9.65
2023-02-27T17:20:15.187Z,13.93
2023-02-27T17:22:44.596Z,9.90
2023-02-27T17:25:13.454Z,17.40
2023-02-27T17:27:43.767Z,15.40
2023-02-27T17:30:12.442Z,15.48
2023-02-27T17:32:40.364Z,17.45
2023-02-27T17:35:08.963Z,21.05
2023-02-27T17:37:37.017Z,19.70
2023-02-27T17:40:08.165Z,14.80
2023-02-27T17:42:39.239Z,13.55
2023-02-27T17:45:08.298Z,14.02
2023-02-27T17:47:36.355Z,9.70
2023-02-27T17:50:05.277Z,11.07
2023-02-27T17:52:36.996Z,14.13
2023-02-27T17:55:05.940Z,9.13
2023-02-27T17:57:36.815Z,14.63
2023-02-27T18:00:09.004Z,12.77
2023-02-27T18:02:37.619Z,13.57
2023-02-27T18:05:06.570Z,18.20
2023-02-27T18:07:34.819Z,12.63
2023-02-27T18:10:05.452Z,13.70
2023-02-27T18:12:34.289Z,13.57
2023-02-27T18:15:03.293Z,16.52
2023-02-27T18:17:31.542Z,14.18
2023-02-27T18:19:59.878Z,8.95
2023-02-27T18:22:30.012Z,9.70
2023-02-27T18:24:58.761Z,12.50
2023-02-27T18:27:28.056Z,14.02
2023-02-27T18:29:57.699Z,25.63
2023-02-27T18:32:25.927Z,13.57
2023-02-27T18:34:54.173Z,17.48
2023-02-27T18:37:22.197Z,18.38
2023-02-27T18:39:49.998Z,19.20
2023-02-27T18:42:17.959Z,16.88
2023-02-27T18:44:45.734Z,18.95
2023-02-27T18:47:13.734Z,16.35
2023-02-27T18:49:41.566Z,18.27
2023-02-27T18:52:09.904Z,18.02
2023-02-27T18:54:37.965Z,17.80
2023-02-27T18:57:06.094Z,24.15
2023-02-27T18:59:33.870Z,24.23
2023-02-27T19:02:01.965Z,25.95
2023-02-27T19:04:33.137Z,25.90
2023-02-27T19:07:01.130Z,28.38
2023-02-27T19:09:32.780Z,29.67
2023-02-27T19:12:00.901Z,30.67
2023-02-27T19:14:28.605Z,36.33
2023-02-27T19:17:00.297Z,38.72
2023-02-27T19:19:28.554Z,30.73
2023-02-27T19:21:56.835Z,28.27
2023-02-27T19:24:24.982Z,16.92
2023-02-27T19:26:53.611Z,22.20
2023-02-27T19:29:21.670Z,19.05
2023-02-27T19:31:50.028Z,15.65
2023-02-27T19:34:17.868Z,8.88
2023-02-27T19:36:45.808Z,9.38
2023-02-27T19:39:13.885Z,6.15
2023-02-27T19:41:41.880Z,9.57
2023-02-27T19:44:09.868Z,7.75
2023-02-27T19:46:39.170Z,7.18
2023-02-27T19:49:08.636Z,6.75
2023-02-27T19:51:36.579Z,7.32
2023-02-27T19:54:04.500Z,7.03
2023-02-27T19:56:32.736Z,10.90
2023-02-27T19:59:00.933Z,12.32
2023-02-27T20:01:31.672Z,17.08
2023-02-27T20:04:00.633Z,17.27
2023-02-27T20:06:32.220Z,15.32
2023-02-27T20:09:00.627Z,16.65
2023-02-27T20:11:32.670Z,14.13
2023-02-27T20:14:01.488Z,14.88
2023-02-27T20:16:30.780Z,13.95
2023-02-27T20:18:58.751Z,16.95
2023-02-27T20:21:28.765Z,16.40
2023-02-27T20:23:57.990Z,14.02
2023-02-27T20:26:29.861Z,23.92
2023-02-27T20:29:04.114Z,11.98
2023-02-27T20:34:02.192Z,26.10
2023-02-27T20:36:30.147Z,30.55
2023-02-27T20:38:58.086Z,31.20
2023-02-27T20:41:29.318Z,31.77
2023-02-27T20:43:58.458Z,35.33
2023-02-27T20:46:28.585Z,29.30
2023-02-27T20:49:00.990Z,26.92
2023-02-27T20:51:35.128Z,34.35
2023-02-27T20:54:04.828Z,34.85
2023-02-27T20:56:35.316Z,29.73
2023-02-27T20:59:08.050Z,29.88
2023-02-27T21:01:38.270Z,35.78
2023-02-27T21:04:06.792Z,32.60
2023-02-27T21:06:35.228Z,33.90
2023-02-27T21:09:06.199Z,49.45
2023-02-27T21:11:34.732Z,53.10
2023-02-27T21:14:11.397Z,50.17
2023-02-27T21:16:40.523Z,61.20
2023-02-27T21:19:08.605Z,52.50
2023-02-27T21:21:37.236Z,58.90
2023-02-27T21:24:06.142Z,50.45
2023-02-27T21:26:39.120Z,44.00
2023-02-27T21:29:15.915Z,45.67
2023-02-27T21:31:45.594Z,48.65
2023-02-27T21:34:16.575Z,45.20
2023-02-27T21:36:45.150Z,40.42
2023-02-27T21:39:16.672Z,49.17
2023-02-27T21:41:45.542Z,51.38
2023-02-27T21:44:15.926Z,45.60
2023-02-27T21:46:45.212Z,50.97
2023-02-27T21:49:39.427Z,65.63
2023-02-27T21:52:07.716Z,60.80
2023-02-27T21:54:35.444Z,63.65
2023-02-27T21:57:03.617Z,85.65
2023-02-27T21:59:31.558Z,93.75
2023-02-27T22:01:59.802Z,79.88
2023-02-27T22:04:28.248Z,79.68
2023-02-27T22:06:56.254Z,100.53
2023-02-27T22:09:24.039Z,92.38
2023-02-27T22:11:52.112Z,93.82
2023-02-27T22:14:19.801Z,92.53
2023-02-27T22:16:47.824Z,89.57
2023-02-27T22:19:20.086Z,82.93
2023-02-27T22:21:48.485Z,82.50
2023-02-27T22:24:16.372Z,83.10
2023-02-27T22:26:45.706Z,73.03
2023-02-27T22:29:13.429Z,88.50
2023-02-27T22:31:41.522Z,70.72
2023-02-27T22:34:13.148Z,82.93
2023-02-27T22:36:41.877Z,79.03
2023-02-27T22:39:10.561Z,80.30
2023-02-27T22:41:40.584Z,80.15
2023-02-27T22:44:12.276Z,87.43
2023-02-27T22:46:43.585Z,90.22
2023-02-27T22:49:15.065Z,96.60
2023-02-27T22:51:43.613Z,85.85
2023-02-27T22:54:14.008Z,97.75
2023-02-27T22:56:42.323Z,84.45
2023-02-27T22:59:10.355Z,91.03
2023-02-27T23:01:38.974Z,90.53
2023-02-27T23:04:08.891Z,87.18
2023-02-27T23:06:39.723Z,90.38
2023-02-27T23:09:10.770Z,87.93
2023-02-27T23:11:38.898Z,89.88
2023-02-27T23:14:06.874Z,87.05
2023-02-27T23:16:35.435Z,83.75
2023-02-27T23:19:04.346Z,87.47
2023-02-27T23:21:36.519Z,84.25
2023-02-27T23:24:10.458Z,84.20
2023-02-27T23:26:40.452Z,83.30
2023-02-27T23:29:09.161Z,90.22
2023-02-27T23:31:38.117Z,88.68
2023-02-27T23:34:06.376Z,86.53
2023-02-27T23:36:36.216Z,81.47
2023-02-27T23:39:06.092Z,86.32
2023-02-27T23:41:34.778Z,82.15
2023-02-27T23:44:21.574Z,84.05
2023-02-27T23:46:49.824Z,87.20
2023-02-27T23:49:17.465Z,90.22
2023-02-27T23:51:45.357Z,94.10
2023-02-27T23:54:13.029Z,79.85
2023-02-27T23:56:40.931Z,88.97
2023-02-27T23:59:08.717Z,92.75
